Time;durP1;ratioP1;P1;durP2;ratioP2;P2;SDS_P1;SDS_P2;PMS_P1;PMS_P2;Temp;Humidity;BMP_temperature;BMP_pressure;BME280_temperature;BME280_humidity;BME280_pressure;Samples;Min_cycle;Max_cycle;Signal;HPM_P1;HPM_P2
2023/08/01 00:01:31;;;;;;;;;0.00;0.00;;;;;;;;2;261772904;261772904;-73
2023/08/01 00:08:53;;;;;;;;;0.00;0.00;;;;;;;;2;217376487;217376487;-74
2023/08/01 00:17:20;;;;;;;;;0.50;0.50;;;;;;;;2;261382481;261382481;-73
2023/08/01 00:24:48;;;;;;;;;1.50;1.50;;;;;;;;2;217973690;217973690;-72
2023/08/01 00:33:14;;;;;;;;;9.00;1.00;;;;;;;;2;260486804;260486804;-74
2023/08/01 00:40:40;;;;;;;;;0.50;0.50;;;;;;;;2;218298448;218298448;-73
2023/08/01 00:49:08;;;;;;;;;0.50;0.50;;;;;;;;2;263450244;263450244;-74
2023/08/01 00:56:37;;;;;;;;;0.00;0.00;;;;;;;;2;220028201;220028201;-73
2023/08/01 01:05:05;;;;;;;;;1.50;1.50;;;;;;;;2;261878562;261878562;-71
2023/08/01 01:12:28;;;;;;;;;0.00;0.00;;;;;;;;2;219241244;219241244;-71
2023/08/01 01:20:58;;;;;;;;;1.00;1.00;;;;;;;;2;262676180;262676180;-70
2023/08/01 01:28:32;;;;;;;;;0.00;0.00;;;;;;;;2;220448667;220448667;-71
2023/08/01 01:37:04;;;;;;;;;0.00;0.00;;;;;;;;2;264883010;264883010;-71
2023/08/01 01:44:38;;;;;;;;;0.00;0.00;;;;;;;;2;222905513;222905513;-71
2023/08/01 01:53:06;;;;;;;;;0.00;0.00;;;;;;;;2;262025775;262025775;-72
2023/08/01 02:00:35;;;;;;;;;0.00;0.00;;;;;;;;2;220212732;220212732;-73
2023/08/01 02:09:06;;;;;;;;;0.00;0.00;;;;;;;;2;264577542;264577542;-73
2023/08/01 02:16:42;;;;;;;;;0.00;0.00;;;;;;;;2;223202399;223202399;-73
2023/08/01 02:25:19;;;;;;;;;0.50;0.50;;;;;;;;2;264812163;264812163;-73
2023/08/01 02:32:54;;;;;;;;;0.00;0.00;;;;;;;;2;222542822;222542822;-73
2023/08/01 02:41:27;;;;;;;;;0.00;0.00;;;;;;;;2;266373542;266373542;-73
2023/08/01 02:48:59;;;;;;;;;0.00;0.00;;;;;;;;2;223906762;223906762;-74
2023/08/01 03:07:48;;;;;;;;;0.00;0.00;;;;;;;;176777;27;261080567;-74
2023/08/01 03:16:31;;;;;;;;;0.00;0.00;;;;;;;;2;243074799;243074799;-74
2023/08/01 03:24:46;;;;;;;;;0.00;0.00;;;;;;;;2;261078559;261078559;-73
2023/08/01 03:33:29;;;;;;;;;0.00;0.00;;;;;;;;2;243071445;243071445;-73
2023/08/01 03:41:44;;;;;;;;;0.50;0.50;;;;;;;;2;261076622;261076622;-74
2023/08/01 03:50:27;;;;;;;;;0.00;0.00;;;;;;;;2;243073328;243073328;-74
2023/08/01 03:58:42;;;;;;;;;0.00;0.00;;;;;;;;2;261077765;261077765;-73
2023/08/01 04:07:25;;;;;;;;;0.50;0.50;;;;;;;;2;243073025;243073025;-74
2023/08/01 04:15:40;;;;;;;;;0.00;0.00;;;;;;;;2;261077340;261077340;-73
2023/08/01 04:24:25;;;;;;;;;0.00;0.00;;;;;;;;2;243074160;243074160;-74
2023/08/01 04:32:40;;;;;;;;;0.00;0.00;;;;;;;;2;261076311;261076311;-74
2023/08/01 04:41:22;;;;;;;;;1.50;1.50;;;;;;;;2;243073709;243073709;-74
2023/08/01 04:49:38;;;;;;;;;1.00;1.00;;;;;;;;2;261080322;261080322;-74
2023/08/01 04:58:20;;;;;;;;;0.50;0.50;;;;;;;;2;243072139;243072139;-74
2023/08/01 05:06:35;;;;;;;;;0.50;0.50;;;;;;;;2;261077567;261077567;-74
2023/08/01 05:15:18;;;;;;;;;0.50;0.50;;;;;;;;2;243071809;243071809;-75
2023/08/01 05:23:33;;;;;;;;;1.00;1.00;;;;;;;;2;261078969;261078969;-75
2023/08/01 05:32:16;;;;;;;;;0.00;0.00;;;;;;;;2;243073247;243073247;-74
2023/08/01 05:40:31;;;;;;;;;0.50;0.50;;;;;;;;2;261076709;261076709;-75
2023/08/01 05:49:13;;;;;;;;;0.50;0.50;;;;;;;;2;243071547;243071547;-74
2023/08/01 05:57:29;;;;;;;;;1.00;1.00;;;;;;;;2;261076616;261076616;-74
2023/08/01 06:06:11;;;;;;;;;2.00;2.00;;;;;;;;2;243071595;243071595;-74
2023/08/01 06:14:27;;;;;;;;;1.50;1.50;;;;;;;;2;261077104;261077104;-74
2023/08/01 06:23:09;;;;;;;;;0.00;0.00;;;;;;;;2;243074136;243074136;-74
2023/08/01 06:31:24;;;;;;;;;0.00;0.00;;;;;;;;2;261078925;261078925;-73
2023/08/01 06:40:08;;;;;;;;;0.00;0.00;;;;;;;;2;243073321;243073321;-73
2023/08/01 06:48:23;;;;;;;;;1.50;1.50;;;;;;;;2;261079176;261079176;-74
2023/08/01 06:57:09;;;;;;;;;1.50;1.50;;;;;;;;2;243071357;243071357;-75
2023/08/01 07:05:24;;;;;;;;;0.50;0.50;;;;;;;;2;261079710;261079710;-75
2023/08/01 07:14:06;;;;;;;;;2.50;1.00;;;;;;;;2;243074267;243074267;-73
2023/08/01 07:22:22;;;;;;;;;2.00;2.00;;;;;;;;2;261074473;261074473;-73
2023/08/01 07:31:06;;;;;;;;;0.00;0.00;;;;;;;;2;243074652;243074652;-74
2023/08/01 07:39:21;;;;;;;;;3.50;3.50;;;;;;;;2;261075467;261075467;-70
2023/08/01 07:48:04;;;;;;;;;0.00;0.00;;;;;;;;2;243071750;243071750;-75
2023/08/01 07:56:19;;;;;;;;;3.00;3.00;;;;;;;;2;261075185;261075185;-74
2023/08/01 08:05:02;;;;;;;;;0.00;0.00;;;;;;;;2;243074340;243074340;-75
2023/08/01 08:13:17;;;;;;;;;0.50;0.50;;;;;;;;2;261078380;261078380;-74
2023/08/01 08:22:00;;;;;;;;;2.50;2.50;;;;;;;;2;243074520;243074520;-74
2023/08/01 08:30:15;;;;;;;;;0.00;0.00;;;;;;;;2;261076285;261076285;-74
2023/08/01 08:38:58;;;;;;;;;3.50;0.50;;;;;;;;2;243073354;243073354;-71
2023/08/01 08:47:16;;;;;;;;;2.00;2.00;;;;;;;;2;261078967;261078967;-77
2023/08/01 08:56:00;;;;;;;;;0.00;0.00;;;;;;;;2;243072341;243072341;-78
2023/08/01 09:04:15;;;;;;;;;1.00;1.00;;;;;;;;2;261073375;261073375;-76
2023/08/01 09:12:57;;;;;;;;;0.50;0.50;;;;;;;;2;243071393;243071393;-77
2023/08/01 09:21:13;;;;;;;;;2.00;2.00;;;;;;;;2;261077262;261077262;-77
2023/08/01 09:30:04;;;;;;;;;1.00;1.00;;;;;;;;2;243071663;243071663;-78
2023/08/01 09:38:19;;;;;;;;;0.50;0.50;;;;;;;;2;261075060;261075060;-77
2023/08/01 09:47:03;;;;;;;;;1.00;1.00;;;;;;;;2;243069872;243069872;-77
2023/08/01 09:55:25;;;;;;;;;1.00;1.00;;;;;;;;2;261073652;261073652;-80
2023/08/01 10:04:08;;;;;;;;;2.50;2.50;;;;;;;;2;243072788;243072788;-78
2023/08/01 10:12:25;;;;;;;;;2.00;2.00;;;;;;;;2;261074069;261074069;-75
2023/08/01 10:21:09;;;;;;;;;0.50;0.50;;;;;;;;2;243071181;243071181;-79
2023/08/01 10:29:35;;;;;;;;;1.50;1.50;;;;;;;;2;261076006;261076006;-79
2023/08/01 10:38:18;;;;;;;;;1.50;1.50;;;;;;;;2;243071612;243071612;-76
2023/08/01 10:46:46;;;;;;;;;0.50;0.50;;;;;;;;2;261076386;261076386;-78
2023/08/01 10:55:38;;;;;;;;;0.50;0.50;;;;;;;;2;243068630;243068630;-78
2023/08/01 11:03:53;;;;;;;;;0.00;0.00;;;;;;;;2;261077734;261077734;-78
2023/08/01 11:12:37;;;;;;;;;1.50;1.50;;;;;;;;2;243070279;243070279;-76
2023/08/01 11:20:52;;;;;;;;;0.00;0.00;;;;;;;;2;261074327;261074327;-77
2023/08/01 11:29:39;;;;;;;;;0.50;0.50;;;;;;;;2;243070616;243070616;-78
2023/08/01 11:37:55;;;;;;;;;0.00;0.00;;;;;;;;2;261076254;261076254;-78
2023/08/01 11:46:38;;;;;;;;;0.50;0.50;;;;;;;;2;243071308;243071308;-79
2023/08/01 11:54:57;;;;;;;;;0.00;0.00;;;;;;;;2;261076008;261076008;-78
2023/08/01 12:03:48;;;;;;;;;1.00;1.00;;;;;;;;2;243072302;243072302;-78
2023/08/01 12:12:04;;;;;;;;;1.00;1.00;;;;;;;;2;261077715;261077715;-78
2023/08/01 12:20:46;;;;;;;;;3.50;3.50;;;;;;;;2;243072778;243072778;-75
2023/08/01 12:29:02;;;;;;;;;0.00;0.00;;;;;;;;2;261078090;261078090;-76
2023/08/01 12:37:44;;;;;;;;;3.00;3.00;;;;;;;;2;243073455;243073455;-77
2023/08/01 12:46:00;;;;;;;;;4.00;0.00;;;;;;;;2;261076452;261076452;-77
2023/08/01 12:54:42;;;;;;;;;0.00;0.00;;;;;;;;2;243070953;243070953;-75
2023/08/01 13:02:57;;;;;;;;;0.00;0.00;;;;;;;;2;261077327;261077327;-77
2023/08/01 13:11:42;;;;;;;;;0.50;0.50;;;;;;;;2;243072157;243072157;-78
2023/08/01 13:19:57;;;;;;;;;3.50;1.00;;;;;;;;2;261071865;261071865;-78
2023/08/01 13:28:39;;;;;;;;;1.00;1.00;;;;;;;;2;243071146;243071146;-79
2023/08/01 13:36:55;;;;;;;;;0.00;0.00;;;;;;;;2;261078439;261078439;-70
2023/08/01 13:45:38;;;;;;;;;0.00;0.00;;;;;;;;2;243070688;243070688;-68
2023/08/01 13:53:55;;;;;;;;;0.50;0.50;;;;;;;;2;261079837;261079837;-69
2023/08/01 14:02:37;;;;;;;;;0.50;0.50;;;;;;;;2;243076271;243076271;-68
2023/08/01 14:10:52;;;;;;;;;0.50;0.50;;;;;;;;2;261078024;261078024;-69
2023/08/01 14:19:35;;;;;;;;;0.00;0.00;;;;;;;;2;243073128;243073128;-70
2023/08/01 14:27:50;;;;;;;;;0.00;0.00;;;;;;;;2;261078052;261078052;-69
2023/08/01 14:36:33;;;;;;;;;1.50;1.50;;;;;;;;2;243074856;243074856;-68
2023/08/01 14:44:52;;;;;;;;;0.00;0.00;;;;;;;;2;261077017;261077017;-68
2023/08/01 14:53:35;;;;;;;;;1.00;1.00;;;;;;;;2;243075712;243075712;-68
2023/08/01 15:01:50;;;;;;;;;3.50;3.50;;;;;;;;2;261080350;261080350;-69
2023/08/01 15:10:35;;;;;;;;;0.50;0.50;;;;;;;;2;243074624;243074624;-70
2023/08/01 15:18:51;;;;;;;;;0.50;0.50;;;;;;;;2;261079607;261079607;-68
2023/08/01 15:27:33;;;;;;;;;0.50;0.50;;;;;;;;2;243073917;243073917;-68
2023/08/01 15:35:49;;;;;;;;;2.50;2.50;;;;;;;;2;261077442;261077442;-68
2023/08/01 15:44:31;;;;;;;;;0.00;0.00;;;;;;;;2;243073790;243073790;-68
2023/08/01 15:52:47;;;;;;;;;4.00;1.50;;;;;;;;2;261076761;261076761;-69
2023/08/01 16:01:29;;;;;;;;;1.00;1.00;;;;;;;;2;243075506;243075506;-69
2023/08/01 16:09:44;;;;;;;;;1.50;1.50;;;;;;;;2;261076737;261076737;-68
2023/08/01 16:18:27;;;;;;;;;0.50;0.50;;;;;;;;2;243073268;243073268;-69
2023/08/01 16:26:42;;;;;;;;;1.00;1.00;;;;;;;;2;261078683;261078683;-67
2023/08/01 16:35:25;;;;;;;;;1.50;1.50;;;;;;;;2;243075667;243075667;-68
2023/08/01 16:43:40;;;;;;;;;0.50;0.50;;;;;;;;2;261079312;261079312;-67
2023/08/01 16:52:23;;;;;;;;;1.50;1.50;;;;;;;;2;243070797;243070797;-69
2023/08/01 17:00:38;;;;;;;;;0.00;0.00;;;;;;;;2;261077815;261077815;-68
2023/08/01 17:09:20;;;;;;;;;0.00;0.00;;;;;;;;2;243072536;243072536;-68
2023/08/01 17:17:36;;;;;;;;;1.00;1.00;;;;;;;;2;261079063;261079063;-68
2023/08/01 17:26:18;;;;;;;;;0.00;0.00;;;;;;;;2;243074489;243074489;-69
2023/08/01 17:34:34;;;;;;;;;2.50;2.50;;;;;;;;2;261079040;261079040;-67
2023/08/01 17:43:16;;;;;;;;;0.00;0.00;;;;;;;;2;243074047;243074047;-68
2023/08/01 17:51:31;;;;;;;;;1.00;1.00;;;;;;;;2;261080404;261080404;-68
2023/08/01 18:00:14;;;;;;;;;1.00;1.00;;;;;;;;2;243075209;243075209;-68
2023/08/01 18:08:29;;;;;;;;;4.50;0.50;;;;;;;;2;261079521;261079521;-68
2023/08/01 18:17:12;;;;;;;;;5.00;5.00;;;;;;;;2;243074382;243074382;-68
2023/08/01 18:25:32;;;;;;;;;2.50;2.50;;;;;;;;2;261077028;261077028;-68
2023/08/01 18:34:14;;;;;;;;;0.00;0.00;;;;;;;;2;243071973;243071973;-68
2023/08/01 18:42:30;;;;;;;;;0.50;0.50;;;;;;;;2;261079143;261079143;-68
2023/08/01 18:51:13;;;;;;;;;1.50;1.50;;;;;;;;2;243074253;243074253;-68
2023/08/01 18:59:28;;;;;;;;;0.50;0.50;;;;;;;;2;261080900;261080900;-70
2023/08/01 19:08:11;;;;;;;;;2.50;2.50;;;;;;;;2;243072542;243072542;-68
2023/08/01 19:16:28;;;;;;;;;1.50;1.50;;;;;;;;2;261078050;261078050;-68
2023/08/01 19:25:11;;;;;;;;;1.00;1.00;;;;;;;;2;243072206;243072206;-68
2023/08/01 19:33:26;;;;;;;;;1.00;1.00;;;;;;;;2;261079374;261079374;-68
2023/08/01 19:42:09;;;;;;;;;0.00;0.00;;;;;;;;2;243074461;243074461;-68
2023/08/01 19:50:25;;;;;;;;;0.00;0.00;;;;;;;;2;261080647;261080647;-68
2023/08/01 19:59:07;;;;;;;;;1.50;1.50;;;;;;;;2;243073367;243073367;-68
2023/08/01 20:07:22;;;;;;;;;0.00;0.00;;;;;;;;2;261079642;261079642;-68
2023/08/01 20:16:05;;;;;;;;;0.50;0.50;;;;;;;;2;243075384;243075384;-69
2023/08/01 20:24:20;;;;;;;;;0.50;0.50;;;;;;;;2;261079992;261079992;-68
2023/08/01 20:33:03;;;;;;;;;0.00;0.00;;;;;;;;2;243071511;243071511;-79
2023/08/01 20:41:18;;;;;;;;;12.50;0.50;;;;;;;;2;261073043;261073043;-81
2023/08/01 20:50:01;;;;;;;;;1.00;1.00;;;;;;;;2;243068545;243068545;-78
2023/08/01 20:58:19;;;;;;;;;0.50;0.50;;;;;;;;2;261074887;261074887;-81
2023/08/01 21:07:01;;;;;;;;;1.50;1.50;;;;;;;;2;243068867;243068867;-81
2023/08/01 21:15:17;;;;;;;;;0.50;0.50;;;;;;;;2;261075797;261075797;-79
2023/08/01 21:23:59;;;;;;;;;2.00;2.00;;;;;;;;2;243068798;243068798;-79
2023/08/01 21:32:14;;;;;;;;;2.00;2.00;;;;;;;;2;261074826;261074826;-83
2023/08/01 21:40:57;;;;;;;;;1.50;1.50;;;;;;;;2;243069125;243069125;-83
2023/08/01 21:49:12;;;;;;;;;10.50;1.50;;;;;;;;2;261073757;261073757;-82
2023/08/01 21:57:54;;;;;;;;;0.50;0.50;;;;;;;;2;243067371;243067371;-84
2023/08/01 22:06:10;;;;;;;;;0.00;0.00;;;;;;;;2;261075493;261075493;-82
2023/08/01 22:14:52;;;;;;;;;3.00;3.00;;;;;;;;2;243070946;243070946;-84
2023/08/01 22:23:08;;;;;;;;;2.00;2.00;;;;;;;;2;261074774;261074774;-82
2023/08/01 22:31:50;;;;;;;;;3.00;0.00;;;;;;;;2;243071345;243071345;-79
2023/08/01 22:40:06;;;;;;;;;2.50;2.50;;;;;;;;2;261073352;261073352;-82
2023/08/01 22:48:49;;;;;;;;;0.50;0.50;;;;;;;;2;243071152;243071152;-80
2023/08/01 22:57:04;;;;;;;;;1.50;1.50;;;;;;;;2;261073006;261073006;-85
2023/08/01 23:05:47;;;;;;;;;1.50;1.50;;;;;;;;2;243070194;243070194;-84
2023/08/01 23:14:02;;;;;;;;;8.00;0.50;;;;;;;;2;261072760;261072760;-86
2023/08/01 23:22:44;;;;;;;;;0.00;0.00;;;;;;;;2;243069902;243069902;-80
2023/08/01 23:31:00;;;;;;;;;0.50;0.50;;;;;;;;2;261075210;261075210;-77
2023/08/01 23:39:42;;;;;;;;;0.00;0.00;;;;;;;;2;243073002;243073002;-76
2023/08/01 23:47:58;;;;;;;;;0.50;0.50;;;;;;;;2;261079399;261079399;-78
2023/08/01 23:56:40;;;;;;;;;0.50;0.50;;;;;;;;2;243071356;243071356;-77
